Terminal Aerodrome Forecast
Issued by NWS

Home | Current Version | Previous Version | Text Only | Print | Product List | Glossary On
Versions: 1 2 3 4 5 6 7 8 9 10 11 12 13 14 15 16 17 18 19 20 21 22
895
FTUS43 KDLH 192336
TAFHIB
TAF
KHIB 192336Z 2000/2024 00000KT P6SM SCT200
      TEMPO 2008/2012 5SM BR SCT007
     FM201300 17006KT P6SM SCT035 BKN120
     FM202200 20008KT P6SM SCT035 BKN100=

USA.gov is the U.S. government's official web portal to all federal, state and local government web resources and services.